Pagrindinis puslapis
METAR-TAF:

METAR-TAF

Oro uostai :

Manokotak, Aliaska, Jungtinės Amerikos Valstijos

platuma: 58-59-19N, ilguma: 159-02-56W, Aukštis: 16 m

Dabartinis oras

Ataskaita buvo paskelbta 16 minutes, ne 17:35 UTC
Vėjas 18 kt iš Šiaurės/Šiaurės Rytų su gūsio iki 25 kt
Temperatūra -1°C
Drėgmė 86%
Slėgis 987 hPa
Matomumas: 4.0 km
Su prošvaistėmis ne aukštis 3300 ft
Su prošvaistėmis ne aukštis 4500 ft
Apsiniaukę ne aukštis 5500 ft
sniegas, rūkana

METAR: PAMB 161735Z AUTO 03018G25KT 2 1/2SM -SN BR BKN033 BKN045 OVC055 M01/M03 A2914 RMK AO2 PK WND 03028/1706 P0000 FZRANO $

Laikas: 08:51 (17:51 UTC)


TAF: trūkstamas

Orai ataskaitas ir orų prognozės (METAR, TAF).

turimą stotys yra geltonos ir raudonos taškus žemėlapyje.

Perkelti pele per norėdami pamatyti stoties vardą.

Tada spustelėkite, norėdami matyti oro stebėjimo ir prognozės.

Norėdami pakeisti žemėlapį: spustelėkite ant žalios mygtukų su juodo kryžiaus žemyn,; žalią mygtuką su brūkšneliu, jei norite nutolinti; arba žalių rodyklių gretimoms žemėlapius.


METAR-TAF: